sensor_id;sensor_type;location;lat;lon;timestamp;P1;durP1;ratioP1;P2;durP2;ratioP2
47259;SDS011;32999;52.412;4.890;2024-01-30T00:00:25;18.38;;;9.10;;
47259;SDS011;32999;52.412;4.890;2024-01-30T00:05:28;21.08;;;9.57;;
47259;SDS011;32999;52.412;4.890;2024-01-30T00:10:30;15.57;;;9.77;;
47259;SDS011;32999;52.412;4.890;2024-01-30T00:15:31;21.50;;;10.10;;
47259;SDS011;32999;52.412;4.890;2024-01-30T00:20:34;19.27;;;10.43;;
47259;SDS011;32999;52.412;4.890;2024-01-30T00:25:35;16.98;;;9.05;;
47259;SDS011;32999;52.412;4.890;2024-01-30T00:30:37;15.88;;;9.88;;
47259;SDS011;32999;52.412;4.890;2024-01-30T00:35:39;19.55;;;9.82;;
47259;SDS011;32999;52.412;4.890;2024-01-30T00:40:41;14.63;;;9.02;;
47259;SDS011;32999;52.412;4.890;2024-01-30T00:45:43;13.60;;;8.88;;
47259;SDS011;32999;52.412;4.890;2024-01-30T00:50:46;21.17;;;9.75;;
47259;SDS011;32999;52.412;4.890;2024-01-30T00:55:47;18.92;;;8.93;;
47259;SDS011;32999;52.412;4.890;2024-01-30T01:00:49;15.82;;;8.90;;
47259;SDS011;32999;52.412;4.890;2024-01-30T01:05:52;13.05;;;8.05;;
47259;SDS011;32999;52.412;4.890;2024-01-30T01:10:53;13.57;;;8.10;;
47259;SDS011;32999;52.412;4.890;2024-01-30T01:15:55;14.45;;;8.25;;
47259;SDS011;32999;52.412;4.890;2024-01-30T01:20:57;14.43;;;8.25;;
47259;SDS011;32999;52.412;4.890;2024-01-30T01:25:59;16.58;;;8.60;;
47259;SDS011;32999;52.412;4.890;2024-01-30T01:31:01;14.63;;;8.38;;
47259;SDS011;32999;52.412;4.890;2024-01-30T01:36:06;13.75;;;8.18;;
47259;SDS011;32999;52.412;4.890;2024-01-30T01:41:08;13.95;;;8.80;;
47259;SDS011;32999;52.412;4.890;2024-01-30T01:46:09;13.50;;;7.85;;
47259;SDS011;32999;52.412;4.890;2024-01-30T01:51:12;17.27;;;8.23;;
47259;SDS011;32999;52.412;4.890;2024-01-30T01:56:14;11.57;;;6.75;;
47259;SDS011;32999;52.412;4.890;2024-01-30T02:01:16;14.75;;;7.65;;
47259;SDS011;32999;52.412;4.890;2024-01-30T02:06:19;13.60;;;7.35;;
47259;SDS011;32999;52.412;4.890;2024-01-30T02:11:21;11.98;;;7.47;;
47259;SDS011;32999;52.412;4.890;2024-01-30T02:16:23;12.40;;;7.10;;
47259;SDS011;32999;52.412;4.890;2024-01-30T02:21:26;12.48;;;7.25;;
47259;SDS011;32999;52.412;4.890;2024-01-30T02:26:28;10.77;;;7.25;;
47259;SDS011;32999;52.412;4.890;2024-01-30T02:31:29;13.93;;;7.95;;
47259;SDS011;32999;52.412;4.890;2024-01-30T02:36:32;14.68;;;7.75;;
47259;SDS011;32999;52.412;4.890;2024-01-30T02:41:33;10.90;;;6.90;;
47259;SDS011;32999;52.412;4.890;2024-01-30T02:46:35;12.65;;;7.10;;
47259;SDS011;32999;52.412;4.890;2024-01-30T02:51:38;13.75;;;6.85;;
47259;SDS011;32999;52.412;4.890;2024-01-30T02:56:39;15.43;;;7.65;;
47259;SDS011;32999;52.412;4.890;2024-01-30T03:01:43;15.48;;;7.50;;
47259;SDS011;32999;52.412;4.890;2024-01-30T03:06:47;10.50;;;6.55;;
47259;SDS011;32999;52.412;4.890;2024-01-30T03:11:49;10.48;;;6.82;;
47259;SDS011;32999;52.412;4.890;2024-01-30T03:16:50;12.00;;;7.15;;
47259;SDS011;32999;52.412;4.890;2024-01-30T03:27:09;13.32;;;7.15;;
47259;SDS011;32999;52.412;4.890;2024-01-30T03:32:11;11.45;;;6.93;;
47259;SDS011;32999;52.412;4.890;2024-01-30T03:37:12;14.73;;;6.82;;
47259;SDS011;32999;52.412;4.890;2024-01-30T03:42:15;10.07;;;6.63;;
47259;SDS011;32999;52.412;4.890;2024-01-30T03:47:16;12.70;;;6.78;;
47259;SDS011;32999;52.412;4.890;2024-01-30T03:52:18;11.10;;;7.10;;
47259;SDS011;32999;52.412;4.890;2024-01-30T03:57:21;11.82;;;7.30;;
47259;SDS011;32999;52.412;4.890;2024-01-30T04:02:22;12.63;;;6.47;;
47259;SDS011;32999;52.412;4.890;2024-01-30T04:07:23;13.27;;;7.80;;
47259;SDS011;32999;52.412;4.890;2024-01-30T04:12:26;10.52;;;6.75;;
47259;SDS011;32999;52.412;4.890;2024-01-30T04:17:28;13.50;;;7.75;;
47259;SDS011;32999;52.412;4.890;2024-01-30T04:22:29;10.07;;;6.10;;
47259;SDS011;32999;52.412;4.890;2024-01-30T04:27:32;11.80;;;7.35;;
47259;SDS011;32999;52.412;4.890;2024-01-30T04:32:34;13.13;;;7.13;;
47259;SDS011;32999;52.412;4.890;2024-01-30T04:37:36;10.73;;;6.47;;
47259;SDS011;32999;52.412;4.890;2024-01-30T04:42:38;18.83;;;7.35;;
47259;SDS011;32999;52.412;4.890;2024-01-30T04:47:40;13.52;;;6.95;;
47259;SDS011;32999;52.412;4.890;2024-01-30T04:52:41;13.27;;;7.28;;
47259;SDS011;32999;52.412;4.890;2024-01-30T04:57:44;13.80;;;7.32;;
47259;SDS011;32999;52.412;4.890;2024-01-30T05:02:46;11.43;;;6.18;;
47259;SDS011;32999;52.412;4.890;2024-01-30T05:07:47;13.02;;;6.25;;
47259;SDS011;32999;52.412;4.890;2024-01-30T05:12:50;13.63;;;6.93;;
47259;SDS011;32999;52.412;4.890;2024-01-30T05:17:51;10.70;;;6.85;;
47259;SDS011;32999;52.412;4.890;2024-01-30T05:22:53;9.40;;;6.22;;
47259;SDS011;32999;52.412;4.890;2024-01-30T05:27:56;11.90;;;6.72;;
47259;SDS011;32999;52.412;4.890;2024-01-30T05:32:57;9.63;;;5.95;;
47259;SDS011;32999;52.412;4.890;2024-01-30T05:37:59;13.77;;;7.15;;
47259;SDS011;32999;52.412;4.890;2024-01-30T05:43:02;10.02;;;5.70;;
47259;SDS011;32999;52.412;4.890;2024-01-30T05:48:03;9.75;;;5.80;;
47259;SDS011;32999;52.412;4.890;2024-01-30T05:53:05;13.13;;;6.47;;
47259;SDS011;32999;52.412;4.890;2024-01-30T05:58:08;10.32;;;6.57;;
47259;SDS011;32999;52.412;4.890;2024-01-30T06:03:09;11.25;;;6.40;;
47259;SDS011;32999;52.412;4.890;2024-01-30T06:08:11;11.30;;;7.47;;
47259;SDS011;32999;52.412;4.890;2024-01-30T06:13:14;10.40;;;6.45;;
47259;SDS011;32999;52.412;4.890;2024-01-30T06:18:15;10.65;;;6.75;;
47259;SDS011;32999;52.412;4.890;2024-01-30T06:23:17;12.70;;;7.57;;
47259;SDS011;32999;52.412;4.890;2024-01-30T06:28:20;10.05;;;5.90;;
47259;SDS011;32999;52.412;4.890;2024-01-30T06:33:22;12.23;;;6.70;;
47259;SDS011;32999;52.412;4.890;2024-01-30T06:38:23;11.43;;;6.93;;
47259;SDS011;32999;52.412;4.890;2024-01-30T06:43:26;9.77;;;6.18;;
47259;SDS011;32999;52.412;4.890;2024-01-30T06:48:28;11.15;;;6.45;;
47259;SDS011;32999;52.412;4.890;2024-01-30T06:53:29;12.07;;;6.18;;
47259;SDS011;32999;52.412;4.890;2024-01-30T06:58:32;8.90;;;5.53;;
47259;SDS011;32999;52.412;4.890;2024-01-30T07:03:34;9.32;;;5.97;;
47259;SDS011;32999;52.412;4.890;2024-01-30T07:08:35;11.38;;;6.20;;
47259;SDS011;32999;52.412;4.890;2024-01-30T07:13:38;12.80;;;6.25;;
47259;SDS011;32999;52.412;4.890;2024-01-30T07:18:40;11.10;;;6.13;;
47259;SDS011;32999;52.412;4.890;2024-01-30T07:23:41;13.60;;;6.32;;
47259;SDS011;32999;52.412;4.890;2024-01-30T07:28:44;11.43;;;6.65;;
47259;SDS011;32999;52.412;4.890;2024-01-30T07:33:46;17.98;;;6.82;;
47259;SDS011;32999;52.412;4.890;2024-01-30T07:38:48;9.85;;;5.22;;
47259;SDS011;32999;52.412;4.890;2024-01-30T07:43:51;12.02;;;6.18;;
47259;SDS011;32999;52.412;4.890;2024-01-30T07:48:52;10.55;;;5.55;;
47259;SDS011;32999;52.412;4.890;2024-01-30T07:53:53;15.15;;;5.85;;
47259;SDS011;32999;52.412;4.890;2024-01-30T07:58:56;10.90;;;6.50;;
47259;SDS011;32999;52.412;4.890;2024-01-30T08:03:58;13.90;;;7.22;;
47259;SDS011;32999;52.412;4.890;2024-01-30T08:08:59;10.02;;;5.93;;
47259;SDS011;32999;52.412;4.890;2024-01-30T08:14:02;11.05;;;6.10;;
47259;SDS011;32999;52.412;4.890;2024-01-30T08:19:04;10.52;;;5.47;;
47259;SDS011;32999;52.412;4.890;2024-01-30T08:24:06;12.95;;;6.43;;
47259;SDS011;32999;52.412;4.890;2024-01-30T08:29:09;19.92;;;7.43;;
47259;SDS011;32999;52.412;4.890;2024-01-30T08:34:10;9.32;;;5.20;;
47259;SDS011;32999;52.412;4.890;2024-01-30T08:39:12;11.18;;;6.03;;
47259;SDS011;32999;52.412;4.890;2024-01-30T08:44:15;15.38;;;6.45;;
47259;SDS011;32999;52.412;4.890;2024-01-30T08:49:17;12.90;;;5.67;;
47259;SDS011;32999;52.412;4.890;2024-01-30T08:54:19;8.65;;;6.22;;
47259;SDS011;32999;52.412;4.890;2024-01-30T08:59:22;15.10;;;6.53;;
47259;SDS011;32999;52.412;4.890;2024-01-30T09:04:23;10.95;;;6.07;;
47259;SDS011;32999;52.412;4.890;2024-01-30T09:09:25;17.48;;;6.40;;
47259;SDS011;32999;52.412;4.890;2024-01-30T09:14:28;13.13;;;5.93;;
47259;SDS011;32999;52.412;4.890;2024-01-30T09:19:30;14.90;;;7.10;;
47259;SDS011;32999;52.412;4.890;2024-01-30T09:24:31;25.05;;;7.03;;
47259;SDS011;32999;52.412;4.890;2024-01-30T09:29:34;18.05;;;5.70;;
47259;SDS011;32999;52.412;4.890;2024-01-30T09:34:36;26.20;;;5.85;;
47259;SDS011;32999;52.412;4.890;2024-01-30T09:39:39;16.73;;;5.55;;
47259;SDS011;32999;52.412;4.890;2024-01-30T09:44:43;22.92;;;6.72;;
47259;SDS011;32999;52.412;4.890;2024-01-30T09:49:44;10.10;;;4.83;;
47259;SDS011;32999;52.412;4.890;2024-01-30T09:54:47;16.55;;;4.55;;
47259;SDS011;32999;52.412;4.890;2024-01-30T09:59:52;17.20;;;6.20;;
47259;SDS011;32999;52.412;4.890;2024-01-30T10:04:54;9.18;;;3.33;;
47259;SDS011;32999;52.412;4.890;2024-01-30T10:09:55;10.57;;;4.15;;
47259;SDS011;32999;52.412;4.890;2024-01-30T10:14:59;10.05;;;2.75;;
47259;SDS011;32999;52.412;4.890;2024-01-30T10:20:00;4.80;;;1.27;;
47259;SDS011;32999;52.412;4.890;2024-01-30T10:25:05;7.28;;;1.17;;
47259;SDS011;32999;52.412;4.890;2024-01-30T10:30:09;7.63;;;1.67;;
47259;SDS011;32999;52.412;4.890;2024-01-30T10:35:11;5.13;;;1.25;;
47259;SDS011;32999;52.412;4.890;2024-01-30T10:40:13;6.63;;;1.38;;
47259;SDS011;32999;52.412;4.890;2024-01-30T10:45:17;8.18;;;1.33;;
47259;SDS011;32999;52.412;4.890;2024-01-30T10:50:19;4.82;;;1.27;;
47259;SDS011;32999;52.412;4.890;2024-01-30T10:55:21;7.95;;;1.85;;
47259;SDS011;32999;52.412;4.890;2024-01-30T11:00:24;7.57;;;1.98;;
47259;SDS011;32999;52.412;4.890;2024-01-30T11:05:27;6.03;;;1.23;;
47259;SDS011;32999;52.412;4.890;2024-01-30T11:10:29;5.10;;;1.70;;
47259;SDS011;32999;52.412;4.890;2024-01-30T11:15:33;10.23;;;2.33;;
47259;SDS011;32999;52.412;4.890;2024-01-30T11:20:34;6.05;;;1.60;;
47259;SDS011;32999;52.412;4.890;2024-01-30T11:25:36;7.43;;;1.90;;
47259;SDS011;32999;52.412;4.890;2024-01-30T11:30:39;7.30;;;1.50;;
47259;SDS011;32999;52.412;4.890;2024-01-30T11:35:41;3.80;;;1.25;;
47259;SDS011;32999;52.412;4.890;2024-01-30T11:40:43;6.40;;;1.90;;
47259;SDS011;32999;52.412;4.890;2024-01-30T11:45:46;7.13;;;1.73;;
47259;SDS011;32999;52.412;4.890;2024-01-30T11:50:48;3.88;;;1.00;;
47259;SDS011;32999;52.412;4.890;2024-01-30T11:55:50;3.28;;;0.90;;
47259;SDS011;32999;52.412;4.890;2024-01-30T12:00:54;4.38;;;0.80;;
47259;SDS011;32999;52.412;4.890;2024-01-30T12:05:56;6.38;;;0.80;;
47259;SDS011;32999;52.412;4.890;2024-01-30T12:10:58;9.00;;;2.95;;
47259;SDS011;32999;52.412;4.890;2024-01-30T12:16:03;7.88;;;3.00;;
47259;SDS011;32999;52.412;4.890;2024-01-30T12:21:04;8.75;;;2.60;;
47259;SDS011;32999;52.412;4.890;2024-01-30T12:26:06;5.18;;;1.35;;
47259;SDS011;32999;52.412;4.890;2024-01-30T12:31:09;6.75;;;1.98;;
47259;SDS011;32999;52.412;4.890;2024-01-30T12:36:11;7.97;;;2.38;;
47259;SDS011;32999;52.412;4.890;2024-01-30T12:41:12;14.95;;;2.08;;
47259;SDS011;32999;52.412;4.890;2024-01-30T12:46:18;7.55;;;2.28;;
47259;SDS011;32999;52.412;4.890;2024-01-30T12:51:19;10.55;;;5.90;;
47259;SDS011;32999;52.412;4.890;2024-01-30T12:56:20;12.02;;;5.40;;
47259;SDS011;32999;52.412;4.890;2024-01-30T13:01:23;7.88;;;3.53;;
47259;SDS011;32999;52.412;4.890;2024-01-30T13:06:25;10.02;;;4.15;;
47259;SDS011;32999;52.412;4.890;2024-01-30T13:11:26;6.10;;;2.47;;
47259;SDS011;32999;52.412;4.890;2024-01-30T13:16:29;8.18;;;2.05;;
47259;SDS011;32999;52.412;4.890;2024-01-30T13:21:31;4.82;;;1.92;;
47259;SDS011;32999;52.412;4.890;2024-01-30T13:26:32;11.18;;;2.13;;
47259;SDS011;32999;52.412;4.890;2024-01-30T13:31:35;7.47;;;2.67;;
47259;SDS011;32999;52.412;4.890;2024-01-30T13:36:37;9.73;;;3.33;;
47259;SDS011;32999;52.412;4.890;2024-01-30T13:41:38;8.15;;;2.70;;
47259;SDS011;32999;52.412;4.890;2024-01-30T13:46:41;12.48;;;4.25;;
47259;SDS011;32999;52.412;4.890;2024-01-30T13:51:42;14.10;;;6.25;;
47259;SDS011;32999;52.412;4.890;2024-01-30T13:56:44;13.77;;;5.88;;
47259;SDS011;32999;52.412;4.890;2024-01-30T14:01:47;12.70;;;6.50;;
47259;SDS011;32999;52.412;4.890;2024-01-30T14:06:48;9.40;;;3.65;;
47259;SDS011;32999;52.412;4.890;2024-01-30T14:11:50;10.95;;;3.03;;
47259;SDS011;32999;52.412;4.890;2024-01-30T14:16:53;10.30;;;3.38;;
47259;SDS011;32999;52.412;4.890;2024-01-30T14:21:54;10.07;;;2.58;;
47259;SDS011;32999;52.412;4.890;2024-01-30T14:26:56;4.07;;;2.50;;
47259;SDS011;32999;52.412;4.890;2024-01-30T14:31:58;8.32;;;1.73;;
47259;SDS011;32999;52.412;4.890;2024-01-30T14:37:00;3.20;;;1.30;;
47259;SDS011;32999;52.412;4.890;2024-01-30T14:42:01;6.78;;;2.42;;
47259;SDS011;32999;52.412;4.890;2024-01-30T14:47:04;6.82;;;2.20;;
47259;SDS011;32999;52.412;4.890;2024-01-30T14:52:06;7.95;;;2.22;;
47259;SDS011;32999;52.412;4.890;2024-01-30T14:57:09;8.00;;;2.65;;
47259;SDS011;32999;52.412;4.890;2024-01-30T15:02:12;2.50;;;1.50;;
47259;SDS011;32999;52.412;4.890;2024-01-30T15:07:14;5.57;;;2.10;;
47259;SDS011;32999;52.412;4.890;2024-01-30T15:12:16;9.23;;;2.60;;
47259;SDS011;32999;52.412;4.890;2024-01-30T15:17:19;9.45;;;3.65;;
47259;SDS011;32999;52.412;4.890;2024-01-30T15:22:21;7.22;;;3.17;;
47259;SDS011;32999;52.412;4.890;2024-01-30T15:27:23;11.00;;;3.38;;
47259;SDS011;32999;52.412;4.890;2024-01-30T15:32:26;9.73;;;2.60;;
47259;SDS011;32999;52.412;4.890;2024-01-30T15:37:28;7.03;;;2.28;;
47259;SDS011;32999;52.412;4.890;2024-01-30T15:42:29;13.25;;;2.72;;
47259;SDS011;32999;52.412;4.890;2024-01-30T15:47:33;10.32;;;2.10;;
47259;SDS011;32999;52.412;4.890;2024-01-30T15:52:35;11.98;;;1.70;;
47259;SDS011;32999;52.412;4.890;2024-01-30T15:57:36;4.45;;;1.92;;
47259;SDS011;32999;52.412;4.890;2024-01-30T16:02:39;15.00;;;2.58;;
47259;SDS011;32999;52.412;4.890;2024-01-30T16:07:50;9.00;;;2.10;;
47259;SDS011;32999;52.412;4.890;2024-01-30T16:12:51;8.35;;;1.88;;
47259;SDS011;32999;52.412;4.890;2024-01-30T16:17:54;13.32;;;1.98;;
47259;SDS011;32999;52.412;4.890;2024-01-30T16:22:55;13.70;;;4.07;;
47259;SDS011;32999;52.412;4.890;2024-01-30T16:27:57;14.30;;;2.17;;
47259;SDS011;32999;52.412;4.890;2024-01-30T16:33:00;14.68;;;1.98;;
47259;SDS011;32999;52.412;4.890;2024-01-30T16:38:02;13.80;;;3.60;;
47259;SDS011;32999;52.412;4.890;2024-01-30T16:43:03;12.73;;;2.55;;
47259;SDS011;32999;52.412;4.890;2024-01-30T16:48:06;22.98;;;3.42;;
47259;SDS011;32999;52.412;4.890;2024-01-30T16:53:10;17.40;;;2.85;;
47259;SDS011;32999;52.412;4.890;2024-01-30T16:58:11;13.98;;;3.55;;
47259;SDS011;32999;52.412;4.890;2024-01-30T17:03:14;20.83;;;2.72;;
47259;SDS011;32999;52.412;4.890;2024-01-30T17:08:16;13.77;;;1.88;;
47259;SDS011;32999;52.412;4.890;2024-01-30T17:13:17;22.50;;;3.15;;
47259;SDS011;32999;52.412;4.890;2024-01-30T17:18:20;19.83;;;2.00;;
47259;SDS011;32999;52.412;4.890;2024-01-30T17:23:21;14.23;;;1.90;;
47259;SDS011;32999;52.412;4.890;2024-01-30T17:28:23;19.77;;;1.95;;
47259;SDS011;32999;52.412;4.890;2024-01-30T17:33:27;14.75;;;2.15;;
47259;SDS011;32999;52.412;4.890;2024-01-30T17:38:28;17.58;;;2.35;;
47259;SDS011;32999;52.412;4.890;2024-01-30T17:43:30;14.88;;;2.67;;
47259;SDS011;32999;52.412;4.890;2024-01-30T17:48:32;15.93;;;1.88;;
47259;SDS011;32999;52.412;4.890;2024-01-30T17:53:34;20.17;;;3.30;;
47259;SDS011;32999;52.412;4.890;2024-01-30T17:58:35;17.67;;;2.40;;
47259;SDS011;32999;52.412;4.890;2024-01-30T18:03:38;11.43;;;2.28;;
47259;SDS011;32999;52.412;4.890;2024-01-30T18:08:40;22.80;;;3.45;;
47259;SDS011;32999;52.412;4.890;2024-01-30T18:13:41;15.38;;;2.08;;
47259;SDS011;32999;52.412;4.890;2024-01-30T18:18:44;16.60;;;2.70;;
47259;SDS011;32999;52.412;4.890;2024-01-30T18:23:46;12.00;;;1.98;;
47259;SDS011;32999;52.412;4.890;2024-01-30T18:28:47;11.50;;;2.15;;
47259;SDS011;32999;52.412;4.890;2024-01-30T18:33:57;14.75;;;2.42;;
47259;SDS011;32999;52.412;4.890;2024-01-30T18:38:58;13.60;;;2.42;;
47259;SDS011;32999;52.412;4.890;2024-01-30T18:44:00;14.88;;;1.95;;
47259;SDS011;32999;52.412;4.890;2024-01-30T18:49:03;13.60;;;1.52;;
47259;SDS011;32999;52.412;4.890;2024-01-30T18:54:05;17.33;;;2.97;;
47259;SDS011;32999;52.412;4.890;2024-01-30T18:59:10;19.13;;;1.98;;
47259;SDS011;32999;52.412;4.890;2024-01-30T19:04:18;8.98;;;1.50;;
47259;SDS011;32999;52.412;4.890;2024-01-30T19:09:20;10.65;;;1.33;;
47259;SDS011;32999;52.412;4.890;2024-01-30T19:14:22;13.43;;;2.75;;
47259;SDS011;32999;52.412;4.890;2024-01-30T19:19:25;14.20;;;1.73;;
47259;SDS011;32999;52.412;4.890;2024-01-30T19:24:26;10.25;;;2.05;;
47259;SDS011;32999;52.412;4.890;2024-01-30T19:29:28;13.15;;;2.40;;
47259;SDS011;32999;52.412;4.890;2024-01-30T19:34:31;8.15;;;1.70;;
47259;SDS011;32999;52.412;4.890;2024-01-30T19:39:33;15.70;;;2.30;;
47259;SDS011;32999;52.412;4.890;2024-01-30T19:44:34;35.88;;;2.65;;
47259;SDS011;32999;52.412;4.890;2024-01-30T19:49:41;8.05;;;1.13;;
47259;SDS011;32999;52.412;4.890;2024-01-30T19:54:42;18.10;;;2.20;;
47259;SDS011;32999;52.412;4.890;2024-01-30T19:59:44;5.50;;;1.58;;
47259;SDS011;32999;52.412;4.890;2024-01-30T20:04:47;5.00;;;0.70;;
47259;SDS011;32999;52.412;4.890;2024-01-30T20:09:49;4.85;;;0.85;;
47259;SDS011;32999;52.412;4.890;2024-01-30T20:14:50;7.15;;;1.83;;
47259;SDS011;32999;52.412;4.890;2024-01-30T20:19:53;2.97;;;0.70;;
47259;SDS011;32999;52.412;4.890;2024-01-30T20:24:55;6.03;;;0.85;;
47259;SDS011;32999;52.412;4.890;2024-01-30T20:29:56;5.57;;;0.80;;
47259;SDS011;32999;52.412;4.890;2024-01-30T20:34:59;3.67;;;0.70;;
47259;SDS011;32999;52.412;4.890;2024-01-30T20:40:02;3.80;;;0.90;;
47259;SDS011;32999;52.412;4.890;2024-01-30T20:45:04;3.30;;;0.35;;
47259;SDS011;32999;52.412;4.890;2024-01-30T20:50:07;5.32;;;0.90;;
47259;SDS011;32999;52.412;4.890;2024-01-30T20:55:09;16.67;;;2.00;;
47259;SDS011;32999;52.412;4.890;2024-01-30T21:00:11;8.23;;;0.88;;
47259;SDS011;32999;52.412;4.890;2024-01-30T21:05:14;6.05;;;0.60;;
47259;SDS011;32999;52.412;4.890;2024-01-30T21:10:22;4.90;;;0.45;;
47259;SDS011;32999;52.412;4.890;2024-01-30T21:15:23;3.88;;;0.70;;
47259;SDS011;32999;52.412;4.890;2024-01-30T21:20:26;6.78;;;0.60;;
47259;SDS011;32999;52.412;4.890;2024-01-30T21:25:27;10.10;;;2.33;;
47259;SDS011;32999;52.412;4.890;2024-01-30T21:30:29;2.75;;;0.80;;
47259;SDS011;32999;52.412;4.890;2024-01-30T21:35:32;2.33;;;0.77;;
47259;SDS011;32999;52.412;4.890;2024-01-30T21:40:33;3.40;;;0.60;;
47259;SDS011;32999;52.412;4.890;2024-01-30T21:45:35;1.48;;;0.60;;
47259;SDS011;32999;52.412;4.890;2024-01-30T21:50:37;3.85;;;0.60;;
47259;SDS011;32999;52.412;4.890;2024-01-30T21:55:39;4.55;;;0.68;;
47259;SDS011;32999;52.412;4.890;2024-01-30T22:00:40;6.00;;;0.85;;
47259;SDS011;32999;52.412;4.890;2024-01-30T22:05:43;1.02;;;0.52;;
47259;SDS011;32999;52.412;4.890;2024-01-30T22:10:45;1.42;;;0.55;;
47259;SDS011;32999;52.412;4.890;2024-01-30T22:15:46;3.88;;;0.70;;
47259;SDS011;32999;52.412;4.890;2024-01-30T22:20:49;6.13;;;0.95;;
47259;SDS011;32999;52.412;4.890;2024-01-30T22:25:50;5.55;;;0.68;;
47259;SDS011;32999;52.412;4.890;2024-01-30T22:30:52;8.02;;;0.85;;
47259;SDS011;32999;52.412;4.890;2024-01-30T22:35:55;5.82;;;1.25;;
47259;SDS011;32999;52.412;4.890;2024-01-30T22:40:56;5.10;;;0.95;;
47259;SDS011;32999;52.412;4.890;2024-01-30T22:45:58;9.50;;;1.15;;
47259;SDS011;32999;52.412;4.890;2024-01-30T22:51:01;5.78;;;0.65;;
47259;SDS011;32999;52.412;4.890;2024-01-30T22:56:02;4.45;;;1.17;;
47259;SDS011;32999;52.412;4.890;2024-01-30T23:01:04;2.75;;;0.90;;
47259;SDS011;32999;52.412;4.890;2024-01-30T23:06:09;7.05;;;0.88;;
47259;SDS011;32999;52.412;4.890;2024-01-30T23:11:11;5.50;;;0.90;;
47259;SDS011;32999;52.412;4.890;2024-01-30T23:16:12;8.32;;;1.00;;
47259;SDS011;32999;52.412;4.890;2024-01-30T23:21:16;4.80;;;0.90;;
47259;SDS011;32999;52.412;4.890;2024-01-30T23:26:18;7.65;;;4.25;;
47259;SDS011;32999;52.412;4.890;2024-01-30T23:31:20;9.80;;;6.50;;
47259;SDS011;32999;52.412;4.890;2024-01-30T23:36:23;8.02;;;4.38;;
47259;SDS011;32999;52.412;4.890;2024-01-30T23:41:25;8.25;;;3.55;;
47259;SDS011;32999;52.412;4.890;2024-01-30T23:46:26;12.80;;;2.33;;
47259;SDS011;32999;52.412;4.890;2024-01-30T23:51:29;5.13;;;2.42;;
47259;SDS011;32999;52.412;4.890;2024-01-30T23:56:30;8.18;;;3.22;;
